createdAt,value
2023-02-15T00:00:44.104Z,94.80
2023-02-15T00:03:45.552Z,94.80
2023-02-15T00:06:47.113Z,94.70
2023-02-15T00:09:48.713Z,94.80
2023-02-15T00:12:50.169Z,94.70
2023-02-15T00:15:51.647Z,94.70
2023-02-15T00:18:53.112Z,94.80
2023-02-15T00:21:54.748Z,94.80
2023-02-15T00:24:56.225Z,94.70
2023-02-15T00:27:57.689Z,95.00
2023-02-15T00:31:09.214Z,95.00
2023-02-15T00:34:10.782Z,94.40
2023-02-15T00:37:12.283Z,94.90
2023-02-15T00:40:13.817Z,94.90
2023-02-15T00:43:15.292Z,94.90
2023-02-15T00:46:16.808Z,94.90
2023-02-15T00:49:18.350Z,94.90
2023-02-15T00:52:19.832Z,94.90
2023-02-15T00:55:21.297Z,94.70
2023-02-15T00:58:22.799Z,94.80
2023-02-15T01:01:24.526Z,94.80
2023-02-15T01:04:26.159Z,94.90
2023-02-15T01:07:27.700Z,94.90
2023-02-15T01:10:29.454Z,94.90
2023-02-15T01:13:30.907Z,94.70
2023-02-15T01:16:32.401Z,94.80
2023-02-15T01:19:33.875Z,94.90
2023-02-15T01:22:35.357Z,94.90
2023-02-15T01:25:36.904Z,94.80
2023-02-15T01:28:38.721Z,94.90
2023-02-15T01:31:40.344Z,94.90
2023-02-15T01:34:41.976Z,94.90
2023-02-15T01:37:43.489Z,94.80
2023-02-15T01:40:44.985Z,94.90
2023-02-15T01:43:47.928Z,95.00
2023-02-15T01:46:52.858Z,95.10
2023-02-15T01:50:08.396Z,95.10
2023-02-15T01:53:22.502Z,94.40
2023-02-15T01:56:30.482Z,94.50
2023-02-15T01:59:32.704Z,94.40
2023-02-15T02:02:34.624Z,95.10
2023-02-15T02:05:36.410Z,95.10
2023-02-15T02:08:38.530Z,95.00
2023-02-15T02:11:41.212Z,95.00
2023-02-15T02:14:43.103Z,95.10
2023-02-15T02:18:03.357Z,95.00
2023-02-15T02:21:11.952Z,94.30
2023-02-15T02:24:28.744Z,94.50
2023-02-15T02:27:30.251Z,94.30
2023-02-15T02:30:50.964Z,94.80
2023-02-15T02:34:02.323Z,94.30
2023-02-15T02:37:09.915Z,94.40
2023-02-15T02:40:31.958Z,94.50
2023-02-15T02:43:50.014Z,94.50
2023-02-15T02:46:53.895Z,94.50
2023-02-15T02:50:14.173Z,95.00
2023-02-15T02:53:15.822Z,94.50
2023-02-15T02:56:27.693Z,95.00
2023-02-15T02:59:32.430Z,94.50
2023-02-15T03:02:36.257Z,95.20
2023-02-15T03:05:40.471Z,95.20
2023-02-15T03:08:44.302Z,95.20
2023-02-15T03:11:45.948Z,95.20
2023-02-15T03:14:52.764Z,95.30
2023-02-15T03:17:59.249Z,94.50
2023-02-15T03:21:02.321Z,94.50
2023-02-15T03:24:16.429Z,95.10
2023-02-15T03:27:21.174Z,95.10
2023-02-15T03:30:23.226Z,95.10
2023-02-15T03:33:25.250Z,95.10
2023-02-15T03:36:37.667Z,95.10
2023-02-15T03:39:42.926Z,94.50
2023-02-15T03:42:45.427Z,95.00
2023-02-15T03:45:55.426Z,95.20
2023-02-15T03:49:04.633Z,95.10
2023-02-15T03:52:07.261Z,94.50
2023-02-15T03:55:08.893Z,95.20
2023-02-15T03:58:29.237Z,95.30
2023-02-15T04:02:00.000Z,94.60
2023-02-15T04:05:01.472Z,94.50
2023-02-15T04:08:03.460Z,95.20
2023-02-15T04:11:04.942Z,95.20
2023-02-15T04:14:25.333Z,95.20
2023-02-15T04:17:26.793Z,94.60
2023-02-15T04:20:46.850Z,95.00
2023-02-15T04:24:06.929Z,94.80
2023-02-15T04:27:08.524Z,94.50
2023-02-15T04:30:10.762Z,95.30
2023-02-15T04:33:12.313Z,95.40
2023-02-15T04:36:13.764Z,95.10
2023-02-15T04:39:16.217Z,95.30
2023-02-15T04:42:17.709Z,95.20
2023-02-15T04:45:19.330Z,95.10
2023-02-15T04:48:20.796Z,95.30
2023-02-15T04:51:22.630Z,95.30
2023-02-15T04:54:24.339Z,95.30
2023-02-15T04:57:25.859Z,95.40
2023-02-15T05:00:28.310Z,95.20
2023-02-15T05:03:29.831Z,95.30
2023-02-15T05:06:31.363Z,95.20
2023-02-15T05:09:32.993Z,95.30
2023-02-15T05:12:34.492Z,95.30
2023-02-15T05:15:35.953Z,95.40
2023-02-15T05:18:37.444Z,95.30
2023-02-15T05:21:38.930Z,95.40
2023-02-15T05:24:59.194Z,95.40
2023-02-15T05:28:19.322Z,94.80
2023-02-15T05:31:21.122Z,94.70
2023-02-15T05:34:22.770Z,95.30
2023-02-15T05:37:24.244Z,95.30
2023-02-15T05:40:25.828Z,95.40
2023-02-15T05:43:27.326Z,94.90
2023-02-15T05:46:28.839Z,95.40
2023-02-15T05:49:31.460Z,95.40
2023-02-15T05:52:32.964Z,95.40
2023-02-15T05:55:34.524Z,95.50
2023-02-15T05:58:37.473Z,95.40
2023-02-15T06:01:39.266Z,95.50
2023-02-15T06:04:40.734Z,95.50
2023-02-15T06:07:45.864Z,95.40
2023-02-15T06:10:47.712Z,94.90
2023-02-15T06:13:49.215Z,95.50
2023-02-15T06:16:50.742Z,95.50
2023-02-15T06:19:52.248Z,95.60
2023-02-15T06:22:53.776Z,95.60
2023-02-15T06:25:55.248Z,95.60
2023-02-15T06:28:56.746Z,95.80
2023-02-15T06:31:58.304Z,95.60
2023-02-15T06:34:59.967Z,95.60
2023-02-15T06:38:01.454Z,95.50
2023-02-15T06:41:03.480Z,95.70
2023-02-15T06:44:05.187Z,95.40
2023-02-15T06:47:06.707Z,95.50
2023-02-15T06:50:08.550Z,95.40
2023-02-15T06:53:10.034Z,95.40
2023-02-15T06:56:12.357Z,95.60
2023-02-15T06:59:13.936Z,95.40
2023-02-15T07:02:15.921Z,95.90
2023-02-15T07:05:17.660Z,95.50
2023-02-15T07:08:20.930Z,95.30
2023-02-15T07:11:41.346Z,95.40
2023-02-15T07:14:42.912Z,94.90
2023-02-15T07:17:44.872Z,95.30
2023-02-15T07:20:47.744Z,95.30
2023-02-15T07:23:49.349Z,95.40
2023-02-15T07:26:50.965Z,95.30
2023-02-15T07:29:52.540Z,95.10
2023-02-15T07:33:16.052Z,95.30
2023-02-15T07:36:17.562Z,95.30
2023-02-15T07:39:19.030Z,95.50
2023-02-15T07:42:21.989Z,95.00
2023-02-15T07:45:23.567Z,95.00
2023-02-15T07:48:25.086Z,94.70
2023-02-15T07:51:26.568Z,94.60
2023-02-15T07:54:28.333Z,94.50
2023-02-15T07:57:29.806Z,94.50
2023-02-15T08:00:51.434Z,94.50
2023-02-15T08:03:54.149Z,94.50
2023-02-15T08:06:55.991Z,94.60
2023-02-15T08:09:57.593Z,94.50
2023-02-15T08:12:59.101Z,94.60
2023-02-15T08:16:01.026Z,94.60
2023-02-15T08:19:10.037Z,94.60
2023-02-15T08:22:13.049Z,94.00
2023-02-15T08:25:14.508Z,94.70
2023-02-15T08:28:15.992Z,94.90
2023-02-15T08:31:17.784Z,94.80
2023-02-15T08:34:20.649Z,94.80
2023-02-15T08:37:22.113Z,94.70
2023-02-15T08:40:23.588Z,94.70
2023-02-15T08:43:25.064Z,94.70
2023-02-15T08:46:27.857Z,94.80
2023-02-15T08:49:29.350Z,94.90
2023-02-15T08:52:30.826Z,94.70
2023-02-15T08:55:32.315Z,94.80
2023-02-15T08:58:34.031Z,94.50
2023-02-15T09:01:35.691Z,94.60
2023-02-15T09:04:37.252Z,94.40
2023-02-15T09:07:38.903Z,94.40
2023-02-15T09:10:40.366Z,94.50
2023-02-15T09:13:41.917Z,94.40
2023-02-15T09:16:49.388Z,94.30
2023-02-15T09:19:50.995Z,94.50
2023-02-15T09:22:56.429Z,94.10
2023-02-15T09:26:02.447Z,94.10
2023-02-15T09:29:04.788Z,93.90
2023-02-15T09:32:06.369Z,94.00
2023-02-15T09:35:08.047Z,93.80
2023-02-15T09:38:10.726Z,93.80
2023-02-15T09:41:12.190Z,93.80
2023-02-15T09:44:32.229Z,93.70
2023-02-15T09:47:51.950Z,93.00
2023-02-15T09:51:12.405Z,93.10
2023-02-15T09:54:20.987Z,92.90
2023-02-15T09:57:28.534Z,93.50
2023-02-15T10:00:42.478Z,92.70
2023-02-15T10:03:57.106Z,92.80
2023-02-15T10:07:03.743Z,92.80
2023-02-15T10:10:22.002Z,93.40
2023-02-15T10:13:26.717Z,92.80
2023-02-15T10:16:31.799Z,92.60
2023-02-15T10:19:40.245Z,92.50
2023-02-15T10:22:48.809Z,93.10
2023-02-15T10:25:58.045Z,93.00
2023-02-15T10:29:09.721Z,92.30
2023-02-15T10:32:11.353Z,92.30
2023-02-15T10:35:15.653Z,92.70
2023-02-15T10:38:26.320Z,92.50
2023-02-15T10:41:33.297Z,92.10
2023-02-15T10:44:41.686Z,92.80
2023-02-15T10:48:01.478Z,92.80
2023-02-15T10:51:03.936Z,92.10
2023-02-15T10:54:24.536Z,92.70
2023-02-15T10:57:37.987Z,92.00
2023-02-15T11:00:44.660Z,91.90
2023-02-15T11:04:04.627Z,91.80
2023-02-15T11:07:08.444Z,91.80
2023-02-15T11:10:23.044Z,92.50
2023-02-15T11:13:28.391Z,91.70
2023-02-15T11:16:33.028Z,92.40
2023-02-15T11:19:36.240Z,92.30
2023-02-15T11:22:38.814Z,92.20
2023-02-15T11:25:40.502Z,92.20
2023-02-15T11:28:45.801Z,92.10
2023-02-15T11:31:50.405Z,92.30
2023-02-15T11:35:15.024Z,92.70
2023-02-15T11:38:21.448Z,91.40
2023-02-15T11:41:25.846Z,91.50
2023-02-15T11:44:32.574Z,92.30
2023-02-15T11:47:34.100Z,92.40
2023-02-15T11:50:35.642Z,92.40
2023-02-15T11:53:38.381Z,92.40
2023-02-15T11:56:39.867Z,92.80
2023-02-15T11:59:42.903Z,92.40
2023-02-15T12:02:46.231Z,92.40
2023-02-15T12:05:50.670Z,92.40
2023-02-15T12:08:58.488Z,92.10
2023-02-15T12:12:18.778Z,91.60
2023-02-15T12:15:30.448Z,91.50
2023-02-15T12:18:35.748Z,92.10
2023-02-15T12:21:41.485Z,91.20
2023-02-15T12:24:46.374Z,92.00
2023-02-15T12:27:48.101Z,92.10
2023-02-15T12:30:50.519Z,92.10
2023-02-15T12:33:53.549Z,92.10
2023-02-15T12:36:58.893Z,92.10
2023-02-15T12:40:01.039Z,92.10
2023-02-15T12:43:09.419Z,91.80
2023-02-15T12:46:28.972Z,91.70
2023-02-15T12:49:39.711Z,91.10
2023-02-15T12:52:41.361Z,92.00
2023-02-15T12:55:54.839Z,91.60
2023-02-15T12:59:05.615Z,90.90
2023-02-15T13:02:07.619Z,91.60
2023-02-15T13:05:17.109Z,91.60
2023-02-15T13:08:21.434Z,90.70
2023-02-15T13:11:26.713Z,91.50
2023-02-15T13:14:34.391Z,91.80
2023-02-15T13:17:35.921Z,90.70
2023-02-15T13:20:38.452Z,91.50
2023-02-15T13:23:43.133Z,91.60
2023-02-15T13:26:46.050Z,91.50
2023-02-15T13:29:52.304Z,91.50
2023-02-15T13:32:57.442Z,91.40
2023-02-15T13:36:06.691Z,91.30
2023-02-15T13:39:09.148Z,90.60
2023-02-15T13:42:31.496Z,91.80
2023-02-15T13:45:52.054Z,90.60
2023-02-15T13:49:06.037Z,90.70
2023-02-15T13:52:16.740Z,90.70
2023-02-15T13:55:21.362Z,90.50
2023-02-15T13:58:41.713Z,90.40
2023-02-15T14:01:59.613Z,90.40
2023-02-15T14:05:23.297Z,90.30
2023-02-15T14:08:34.113Z,91.40
2023-02-15T14:11:35.672Z,90.20
2023-02-15T14:14:46.257Z,91.00
2023-02-15T14:17:56.936Z,90.10
2023-02-15T14:21:11.324Z,90.00
2023-02-15T14:24:18.409Z,90.20
2023-02-15T14:27:26.087Z,91.40
2023-02-15T14:30:30.560Z,90.30
2023-02-15T14:33:38.029Z,91.00
2023-02-15T14:36:39.680Z,90.40
2023-02-15T14:40:04.497Z,91.10
2023-02-15T14:43:16.415Z,91.30
2023-02-15T14:46:24.337Z,90.60
2023-02-15T14:49:27.421Z,90.70
2023-02-15T14:52:28.988Z,91.40
2023-02-15T14:55:37.455Z,91.30
2023-02-15T14:58:39.159Z,90.80
2023-02-15T15:01:41.289Z,91.90
2023-02-15T15:04:45.777Z,91.50
2023-02-15T15:07:52.452Z,91.50
2023-02-15T15:10:53.936Z,90.80
2023-02-15T15:13:57.201Z,91.80
2023-02-15T15:16:59.506Z,91.60
2023-02-15T15:20:02.305Z,92.10
2023-02-15T15:23:24.065Z,91.70
2023-02-15T15:26:27.447Z,91.60
2023-02-15T15:29:39.917Z,91.60
2023-02-15T15:32:50.665Z,90.80
2023-02-15T15:35:55.222Z,90.80
2023-02-15T15:38:56.713Z,90.80
2023-02-15T15:42:04.441Z,91.40
2023-02-15T15:45:11.652Z,90.70
2023-02-15T15:48:25.516Z,90.70
2023-02-15T15:51:32.282Z,90.80
2023-02-15T15:54:33.818Z,91.60
2023-02-15T15:57:39.206Z,91.50
2023-02-15T16:00:43.495Z,91.60
2023-02-15T16:03:52.050Z,91.90
2023-02-15T16:06:53.563Z,91.00
2023-02-15T16:09:55.014Z,91.80
2023-02-15T16:12:56.582Z,91.90
2023-02-15T16:15:58.203Z,91.90
2023-02-15T16:19:00.510Z,92.50
2023-02-15T16:22:02.709Z,91.90
2023-02-15T16:25:04.246Z,91.90
2023-02-15T16:28:11.619Z,91.80
2023-02-15T16:31:15.076Z,91.30
2023-02-15T16:34:19.668Z,92.20
2023-02-15T16:37:26.871Z,91.30
2023-02-15T16:40:35.468Z,92.40
2023-02-15T16:43:37.812Z,92.20
2023-02-15T16:46:44.205Z,92.50
2023-02-15T16:49:47.791Z,92.00
2023-02-15T16:52:49.480Z,93.10
2023-02-15T16:56:01.728Z,92.70
2023-02-15T16:59:04.187Z,92.90
2023-02-15T17:02:07.039Z,92.60
2023-02-15T17:05:08.622Z,92.60
2023-02-15T17:08:20.357Z,92.70
2023-02-15T17:11:22.553Z,91.80
2023-02-15T17:14:31.040Z,92.50
2023-02-15T17:17:32.768Z,91.90
2023-02-15T17:20:37.298Z,92.30
2023-02-15T17:23:52.425Z,92.60
2023-02-15T17:27:00.588Z,91.80
2023-02-15T17:30:03.625Z,93.10
2023-02-15T17:33:18.971Z,92.70
2023-02-15T17:36:30.113Z,92.90
2023-02-15T17:39:33.209Z,92.10
2023-02-15T17:42:34.700Z,93.10
2023-02-15T17:45:38.070Z,92.70
2023-02-15T17:48:41.422Z,92.60
2023-02-15T17:51:43.222Z,92.60
2023-02-15T17:55:03.426Z,92.10
2023-02-15T17:58:06.345Z,92.20
2023-02-15T18:01:30.669Z,92.60
2023-02-15T18:04:51.589Z,92.90
2023-02-15T18:08:11.590Z,92.70
2023-02-15T18:11:32.091Z,92.20
2023-02-15T18:14:33.621Z,92.70
2023-02-15T18:17:43.749Z,92.70
2023-02-15T18:20:45.284Z,92.10
2023-02-15T18:23:47.141Z,92.60
2023-02-15T18:26:48.967Z,92.10
2023-02-15T18:29:50.639Z,92.70
2023-02-15T18:32:53.874Z,92.70
2023-02-15T18:35:55.398Z,92.60
2023-02-15T18:38:56.888Z,92.50
2023-02-15T18:41:58.790Z,92.40
2023-02-15T18:45:03.045Z,92.40
2023-02-15T18:48:04.609Z,92.50
2023-02-15T18:51:10.015Z,92.40
2023-02-15T18:54:19.382Z,92.40
2023-02-15T18:57:20.888Z,91.60
2023-02-15T19:00:33.409Z,92.30
2023-02-15T19:03:34.934Z,91.50
2023-02-15T19:06:37.132Z,92.70
2023-02-15T19:09:39.236Z,92.40
2023-02-15T19:12:40.879Z,92.50
2023-02-15T19:15:42.386Z,92.50
2023-02-15T19:18:44.454Z,92.40
2023-02-15T19:21:46.209Z,91.40
2023-02-15T19:24:48.018Z,92.50
2023-02-15T19:27:49.896Z,92.40
2023-02-15T19:30:51.461Z,92.80
2023-02-15T19:33:53.075Z,92.90
2023-02-15T19:36:56.429Z,92.50
2023-02-15T19:39:57.933Z,92.50
2023-02-15T19:42:59.662Z,92.50
2023-02-15T19:46:01.615Z,92.60
2023-02-15T19:49:03.330Z,92.60
2023-02-15T19:52:05.062Z,92.60
2023-02-15T19:55:06.607Z,92.80
2023-02-15T19:58:11.175Z,92.70
2023-02-15T20:01:12.674Z,92.60
2023-02-15T20:04:14.280Z,92.70
2023-02-15T20:07:21.267Z,92.70
2023-02-15T20:10:24.482Z,92.70
2023-02-15T20:13:26.059Z,92.70
2023-02-15T20:16:28.382Z,92.60
2023-02-15T20:19:29.839Z,92.80
2023-02-15T20:22:31.379Z,92.70
2023-02-15T20:25:34.108Z,93.10
2023-02-15T20:28:35.578Z,92.60
2023-02-15T20:31:37.975Z,92.50
2023-02-15T20:34:39.627Z,92.60
2023-02-15T20:37:41.443Z,93.10
2023-02-15T20:41:03.207Z,92.60
2023-02-15T20:44:22.026Z,92.60
2023-02-15T20:47:26.816Z,91.90
2023-02-15T20:50:30.365Z,93.30
2023-02-15T20:53:32.241Z,92.60
2023-02-15T20:56:34.972Z,92.10
2023-02-15T20:59:37.133Z,92.50
2023-02-15T21:02:38.728Z,92.50
2023-02-15T21:05:40.336Z,92.50
2023-02-15T21:08:42.405Z,92.40
2023-02-15T21:11:44.680Z,92.70
2023-02-15T21:14:46.586Z,92.70
2023-02-15T21:17:48.392Z,93.30
2023-02-15T21:20:52.403Z,92.20
2023-02-15T21:23:54.016Z,92.60
2023-02-15T21:26:56.076Z,92.40
2023-02-15T21:29:57.630Z,92.70
2023-02-15T21:32:59.149Z,92.60
2023-02-15T21:36:00.711Z,92.60
2023-02-15T21:39:02.228Z,92.60
2023-02-15T21:42:24.955Z,92.50
2023-02-15T21:45:45.033Z,93.10
2023-02-15T21:48:46.502Z,92.30
2023-02-15T21:52:08.664Z,92.60
2023-02-15T21:55:14.273Z,92.00
2023-02-15T21:58:20.053Z,92.60
2023-02-15T22:01:26.041Z,92.00
2023-02-15T22:04:28.600Z,92.00
2023-02-15T22:07:30.102Z,92.60
2023-02-15T22:10:32.267Z,92.60
2023-02-15T22:13:33.993Z,92.60
2023-02-15T22:16:35.613Z,92.60
2023-02-15T22:19:37.093Z,92.60
2023-02-15T22:22:38.570Z,92.60
2023-02-15T22:25:40.206Z,92.50
2023-02-15T22:28:42.142Z,92.40
2023-02-15T22:31:44.503Z,92.50
2023-02-15T22:34:46.483Z,92.60
2023-02-15T22:37:47.960Z,92.70
2023-02-15T22:40:50.511Z,92.40
2023-02-15T22:43:52.858Z,92.50
2023-02-15T22:46:54.548Z,92.80
2023-02-15T22:49:56.030Z,92.60
2023-02-15T22:52:59.594Z,92.60
2023-02-15T22:56:04.814Z,93.00
2023-02-15T22:59:08.025Z,92.60
2023-02-15T23:02:12.298Z,92.60
2023-02-15T23:05:16.955Z,92.70
2023-02-15T23:08:18.901Z,92.10
2023-02-15T23:11:20.578Z,92.70
2023-02-15T23:14:22.028Z,92.60
2023-02-15T23:17:23.501Z,92.60
2023-02-15T23:20:25.450Z,92.60
2023-02-15T23:23:31.914Z,92.70
2023-02-15T23:26:33.382Z,91.90
2023-02-15T23:29:34.848Z,92.50
2023-02-15T23:32:36.341Z,92.60
2023-02-15T23:35:38.108Z,92.70
2023-02-15T23:38:39.620Z,92.60
2023-02-15T23:41:41.406Z,92.60
2023-02-15T23:44:43.610Z,92.60
2023-02-15T23:48:04.066Z,92.70
2023-02-15T23:51:06.259Z,92.60
2023-02-15T23:54:08.382Z,92.70
2023-02-15T23:57:11.091Z,92.70
